createdAt,value
2023-02-21T00:02:42.421Z,101276.94
2023-02-21T00:05:27.157Z,101274.47
2023-02-21T00:08:12.155Z,101285.59
2023-02-21T00:10:56.897Z,101282.97
2023-02-21T00:13:41.710Z,101287.31
2023-02-21T00:16:26.890Z,101285.44
2023-02-21T00:19:11.607Z,101292.28
2023-02-21T00:21:56.710Z,101295.44
2023-02-21T00:24:41.348Z,101301.50
2023-02-21T00:27:26.121Z,101294.69
2023-02-21T00:30:10.971Z,101299.75
2023-02-21T00:32:56.061Z,101300.44
2023-02-21T00:35:41.544Z,101303.03
2023-02-21T00:38:26.841Z,101304.78
2023-02-21T00:41:12.448Z,101304.69
2023-02-21T00:43:57.864Z,101309.84
2023-02-21T00:46:43.298Z,101307.22
2023-02-21T00:49:28.085Z,101307.91
2023-02-21T00:52:14.152Z,101315.75
2023-02-21T00:54:58.911Z,101316.66
2023-02-21T00:57:43.753Z,101313.13
2023-02-21T01:00:36.103Z,101313.19
2023-02-21T01:03:21.440Z,101313.22
2023-02-21T01:06:06.162Z,101317.47
2023-02-21T01:08:51.491Z,101317.41
2023-02-21T01:11:38.833Z,101309.56
2023-02-21T01:14:26.807Z,101313.22
2023-02-21T01:17:13.817Z,101310.50
2023-02-21T01:20:00.357Z,101307.75
2023-02-21T01:22:45.611Z,101308.56
2023-02-21T01:25:30.407Z,101297.56
2023-02-21T01:28:15.224Z,101308.75
2023-02-21T01:30:59.971Z,101306.84
2023-02-21T01:33:44.803Z,101310.94
2023-02-21T01:36:29.973Z,101314.47
2023-02-21T01:39:14.797Z,101320.59
2023-02-21T01:42:00.180Z,101314.56
2023-02-21T01:45:00.431Z,101315.16
2023-02-21T01:47:46.128Z,101317.75
2023-02-21T01:50:40.935Z,101314.34
2023-02-21T01:53:31.629Z,101315.97
2023-02-21T01:56:19.096Z,101315.81
2023-02-21T01:59:07.954Z,101312.47
2023-02-21T02:02:36.674Z,101308.31
2023-02-21T02:05:23.971Z,101303.06
2023-02-21T02:08:11.266Z,101316.03
2023-02-21T02:10:56.495Z,101316.69
2023-02-21T02:13:31.098Z,101316.63
2023-02-21T02:16:10.335Z,101318.34
2023-02-21T02:18:58.617Z,101309.22
2023-02-21T02:21:50.239Z,101319.41
2023-02-21T02:24:25.585Z,101325.25
2023-02-21T02:27:25.658Z,101321.06
2023-02-21T02:30:17.350Z,101330.63
2023-02-21T02:33:01.987Z,101326.16
2023-02-21T02:35:33.880Z,101323.53
2023-02-21T02:38:15.525Z,101321.84
2023-02-21T02:40:59.621Z,101320.81
2023-02-21T02:43:51.381Z,101329.50
2023-02-21T02:46:21.448Z,101325.00
2023-02-21T02:48:55.347Z,101327.53
2023-02-21T02:51:22.482Z,101323.22
2023-02-21T02:53:49.956Z,101325.91
2023-02-21T02:56:17.665Z,101330.25
2023-02-21T02:58:52.460Z,101329.28
2023-02-21T03:01:30.715Z,101320.69
2023-02-21T03:04:22.158Z,101315.44
2023-02-21T03:07:06.600Z,101321.50
2023-02-21T03:09:51.461Z,101329.13
2023-02-21T03:12:35.513Z,101328.16
2023-02-21T03:15:17.690Z,101333.50
2023-02-21T03:17:50.709Z,101335.19
2023-02-21T03:20:18.280Z,101335.19
2023-02-21T03:22:46.409Z,101337.66
2023-02-21T03:25:15.028Z,101334.16
2023-02-21T03:27:43.166Z,101339.31
2023-02-21T03:30:10.946Z,101336.69
2023-02-21T03:32:43.752Z,101335.81
2023-02-21T03:35:10.107Z,101332.28
2023-02-21T03:37:42.212Z,101341.88
2023-02-21T03:40:13.603Z,101340.00
2023-02-21T03:42:40.010Z,101341.66
2023-02-21T03:45:06.574Z,101350.19
2023-02-21T03:47:32.985Z,101346.75
2023-02-21T03:49:59.320Z,101349.31
2023-02-21T03:52:25.692Z,101348.47
2023-02-21T03:54:52.050Z,101349.38
2023-02-21T03:57:18.501Z,101349.25
2023-02-21T03:59:45.317Z,101349.22
2023-02-21T04:02:11.704Z,101346.69
2023-02-21T04:04:38.141Z,101353.34
2023-02-21T04:07:04.512Z,101355.09
2023-02-21T04:09:30.894Z,101354.16
2023-02-21T04:11:57.380Z,101353.47
2023-02-21T04:14:23.734Z,101353.41
2023-02-21T04:16:50.189Z,101353.50
2023-02-21T04:19:16.524Z,101345.50
2023-02-21T04:21:42.948Z,101346.31
2023-02-21T04:24:09.364Z,101349.72
2023-02-21T04:26:35.802Z,101345.69
2023-02-21T04:29:02.934Z,101344.75
2023-02-21T04:31:29.351Z,101351.66
2023-02-21T04:34:10.605Z,101348.31
2023-02-21T04:36:38.479Z,101350.31
2023-02-21T04:39:05.808Z,101344.09
2023-02-21T04:41:33.195Z,101353.28
2023-02-21T04:43:59.531Z,101334.03
2023-02-21T04:46:26.141Z,101340.81
2023-02-21T04:48:53.379Z,101347.72
2023-02-21T04:51:22.613Z,101343.50
2023-02-21T04:53:50.048Z,101346.09
2023-02-21T04:56:19.458Z,101340.81
2023-02-21T04:58:46.289Z,101350.31
2023-02-21T05:01:14.424Z,101343.34
2023-02-21T05:03:41.138Z,101339.00
2023-02-21T05:06:07.929Z,101354.31
2023-02-21T05:08:35.990Z,101351.63
2023-02-21T05:11:02.827Z,101350.75
2023-02-21T05:13:29.453Z,101347.47
2023-02-21T05:15:55.782Z,101355.00
2023-02-21T05:18:28.818Z,101353.28
2023-02-21T05:20:55.658Z,101354.88
2023-02-21T05:23:34.212Z,101348.81
2023-02-21T05:26:12.574Z,101362.53
2023-02-21T05:28:40.542Z,101353.13
2023-02-21T05:31:07.702Z,101352.94
2023-02-21T05:33:34.279Z,101353.72
2023-02-21T05:36:00.627Z,101358.06
2023-02-21T05:38:27.304Z,101352.00
2023-02-21T05:40:53.997Z,101355.63
2023-02-21T05:43:20.505Z,101360.72
2023-02-21T05:45:46.933Z,101365.91
2023-02-21T05:48:13.374Z,101360.59
2023-02-21T05:50:39.809Z,101365.78
2023-02-21T05:53:07.140Z,101363.16
2023-02-21T05:55:33.553Z,101371.84
2023-02-21T05:57:59.939Z,101370.19
2023-02-21T06:00:29.668Z,101366.75
2023-02-21T06:02:56.805Z,101372.63
2023-02-21T06:05:23.800Z,101385.63
2023-02-21T06:07:50.258Z,101385.63
2023-02-21T06:10:17.898Z,101376.06
2023-02-21T06:12:44.344Z,101391.78
2023-02-21T06:15:12.712Z,101387.50
2023-02-21T06:17:40.454Z,101392.59
2023-02-21T06:20:07.799Z,101389.78
2023-02-21T06:22:34.246Z,101399.34
2023-02-21T06:25:00.623Z,101392.47
2023-02-21T06:27:27.005Z,101395.78
2023-02-21T06:29:53.341Z,101395.97
2023-02-21T06:32:19.716Z,101394.97
2023-02-21T06:34:46.278Z,101399.28
2023-02-21T06:37:12.906Z,101413.78
2023-02-21T06:39:39.940Z,101411.34
2023-02-21T06:42:06.604Z,101420.88
2023-02-21T06:44:32.955Z,101427.69
2023-02-21T06:46:59.319Z,101437.19
2023-02-21T06:49:25.650Z,101440.78
2023-02-21T06:51:52.027Z,101431.28
2023-02-21T06:54:18.431Z,101437.06
2023-02-21T06:56:44.778Z,101421.88
2023-02-21T06:59:11.381Z,101421.94
2023-02-21T07:01:37.773Z,101430.50
2023-02-21T07:04:04.454Z,101428.66
2023-02-21T07:06:33.216Z,101429.47
2023-02-21T07:08:59.576Z,101429.47
2023-02-21T07:11:25.995Z,101438.06
2023-02-21T07:13:54.354Z,101437.19
2023-02-21T07:16:21.072Z,101447.59
2023-02-21T07:18:47.587Z,101452.63
2023-02-21T07:21:15.423Z,101450.34
2023-02-21T07:23:45.267Z,101455.31
2023-02-21T07:26:12.253Z,101456.41
2023-02-21T07:28:38.708Z,101456.53
2023-02-21T07:31:05.345Z,101464.28
2023-02-21T07:33:32.069Z,101456.56
2023-02-21T07:35:58.490Z,101452.38
2023-02-21T07:38:28.198Z,101456.75
2023-02-21T07:40:55.946Z,101465.53
2023-02-21T07:43:22.358Z,101467.19
2023-02-21T07:45:48.709Z,101466.25
2023-02-21T07:48:15.207Z,101471.41
2023-02-21T07:50:45.482Z,101477.53
2023-02-21T07:53:13.333Z,101475.63
2023-02-21T07:55:39.748Z,101478.22
2023-02-21T07:58:06.449Z,101487.19
2023-02-21T08:00:32.820Z,101483.09
2023-02-21T08:02:59.832Z,101489.16
2023-02-21T08:05:26.431Z,101484.13
2023-02-21T08:07:53.154Z,101485.69
2023-02-21T08:10:26.997Z,101483.38
2023-02-21T08:12:53.666Z,101492.03
2023-02-21T08:15:20.061Z,101493.03
2023-02-21T08:17:50.132Z,101499.88
2023-02-21T08:20:17.171Z,101493.78
2023-02-21T08:22:43.616Z,101495.53
2023-02-21T08:25:11.483Z,101496.44
2023-02-21T08:27:41.669Z,101493.22
2023-02-21T08:30:11.127Z,101502.81
2023-02-21T08:32:37.589Z,101513.16
2023-02-21T08:35:06.226Z,101503.72
2023-02-21T08:37:36.226Z,101508.91
2023-02-21T08:40:04.309Z,101506.34
2023-02-21T08:42:30.763Z,101513.28
2023-02-21T08:44:57.606Z,101510.03
2023-02-21T08:47:24.061Z,101509.22
2023-02-21T08:49:50.472Z,101503.16
2023-02-21T08:52:18.839Z,101509.34
2023-02-21T08:54:46.026Z,101502.53
2023-02-21T08:57:13.053Z,101508.09
2023-02-21T08:59:44.961Z,101518.44
2023-02-21T09:02:16.904Z,101520.13
2023-02-21T09:04:44.108Z,101515.09
2023-02-21T09:07:16.725Z,101511.63
2023-02-21T09:09:43.145Z,101519.53
2023-02-21T09:12:09.839Z,101520.63
2023-02-21T09:14:37.811Z,101522.63
2023-02-21T09:17:05.905Z,101523.47
2023-02-21T09:19:32.814Z,101522.56
2023-02-21T09:22:01.618Z,101523.38
2023-02-21T09:24:28.366Z,101527.50
2023-02-21T09:26:58.898Z,101524.81
2023-02-21T09:29:43.747Z,101522.75
2023-02-21T09:32:12.160Z,101528.81
2023-02-21T09:34:38.777Z,101533.31
2023-02-21T09:37:06.028Z,101534.31
2023-02-21T09:39:32.434Z,101533.38
2023-02-21T09:41:59.036Z,101536.19
2023-02-21T09:44:28.890Z,101537.94
2023-02-21T09:47:01.616Z,101541.69
2023-02-21T09:49:35.431Z,101551.38
2023-02-21T09:52:02.996Z,101541.81
2023-02-21T09:54:39.031Z,101545.34
2023-02-21T09:57:11.316Z,101542.16
2023-02-21T09:59:37.987Z,101541.47
2023-02-21T10:02:10.135Z,101545.81
2023-02-21T10:05:03.227Z,101550.97
2023-02-21T10:07:55.970Z,101545.00
2023-02-21T10:10:33.997Z,101540.75
2023-02-21T10:13:30.558Z,101544.38
2023-02-21T10:16:05.106Z,101547.28
2023-02-21T10:18:38.846Z,101544.75
2023-02-21T10:21:16.080Z,101546.78
2023-02-21T10:23:48.602Z,101543.38
2023-02-21T10:26:38.034Z,101552.94
2023-02-21T10:29:15.333Z,101550.56
2023-02-21T10:31:43.355Z,101562.94
2023-02-21T10:34:23.431Z,101554.53
2023-02-21T10:36:50.852Z,101560.50
2023-02-21T10:39:21.346Z,101569.16
2023-02-21T10:41:49.680Z,101569.19
2023-02-21T10:44:22.225Z,101571.00
2023-02-21T10:47:19.307Z,101576.22
2023-02-21T10:50:01.966Z,101578.91
2023-02-21T10:52:28.320Z,101576.50
2023-02-21T10:55:31.307Z,101574.47
2023-02-21T10:58:06.308Z,101576.94
2023-02-21T11:00:37.273Z,101582.03
2023-02-21T11:03:27.273Z,101575.13
2023-02-21T11:05:59.627Z,101580.22
2023-02-21T11:08:41.453Z,101575.13
2023-02-21T11:11:08.386Z,101577.53
2023-02-21T11:13:36.498Z,101579.16
2023-02-21T11:16:17.331Z,101572.47
2023-02-21T11:18:44.446Z,101572.44
2023-02-21T11:21:16.937Z,101579.25
2023-02-21T11:23:57.937Z,101587.16
2023-02-21T11:26:25.070Z,101574.72
2023-02-21T11:28:52.985Z,101584.91
2023-02-21T11:31:32.159Z,101578.81
2023-02-21T11:34:01.703Z,101580.41
2023-02-21T11:36:36.806Z,101572.63
2023-02-21T11:39:06.111Z,101569.31
2023-02-21T11:41:57.372Z,101574.59
2023-02-21T11:44:38.817Z,101569.31
2023-02-21T11:47:21.684Z,101569.22
2023-02-21T11:50:02.762Z,101568.44
2023-02-21T11:52:37.329Z,101563.75
2023-02-21T11:55:04.634Z,101576.47
2023-02-21T11:57:35.952Z,101578.53
2023-02-21T12:00:24.153Z,101575.06
2023-02-21T12:03:22.549Z,101577.13
2023-02-21T12:06:07.739Z,101581.47
2023-02-21T12:08:56.715Z,101577.75
2023-02-21T12:11:30.257Z,101580.00
2023-02-21T12:14:14.096Z,101580.81
2023-02-21T12:16:59.261Z,101579.63
2023-02-21T12:19:47.461Z,101577.31
2023-02-21T12:22:58.880Z,101575.91
2023-02-21T12:25:44.065Z,101579.75
2023-02-21T12:28:40.401Z,101574.72
2023-02-21T12:31:22.326Z,101576.06
2023-02-21T12:34:12.901Z,101584.44
2023-02-21T12:36:56.775Z,101585.03
2023-02-21T12:39:53.824Z,101578.19
2023-02-21T12:42:36.989Z,101581.81
2023-02-21T12:45:12.298Z,101583.97
2023-02-21T12:47:48.717Z,101578.19
2023-02-21T12:50:20.769Z,101585.91
2023-02-21T12:53:02.717Z,101587.31
2023-02-21T12:56:11.078Z,101576.03
2023-02-21T12:58:53.977Z,101577.72
2023-02-21T13:01:26.377Z,101581.47
2023-02-21T13:04:22.748Z,101582.03
2023-02-21T13:06:55.102Z,101579.47
2023-02-21T13:09:39.147Z,101584.69
2023-02-21T13:12:16.165Z,101573.06
2023-02-21T13:14:49.284Z,101586.41
2023-02-21T13:17:17.373Z,101573.19
2023-02-21T13:19:49.779Z,101580.56
2023-02-21T13:23:12.583Z,101578.78
2023-02-21T13:26:05.032Z,101576.50
2023-02-21T13:28:36.489Z,101576.66
2023-02-21T13:31:06.009Z,101575.06
2023-02-21T13:33:43.877Z,101570.31
2023-02-21T13:36:22.938Z,101567.47
2023-02-21T13:39:02.527Z,101568.28
2023-02-21T13:41:34.208Z,101572.00
2023-02-21T13:44:05.314Z,101569.84
2023-02-21T13:46:31.655Z,101563.28
2023-02-21T13:49:35.599Z,101567.38
2023-02-21T13:52:23.414Z,101566.41
2023-02-21T13:55:14.062Z,101568.34
2023-02-21T13:57:46.143Z,101571.19
2023-02-21T14:00:24.282Z,101578.06
2023-02-21T14:03:05.575Z,101568.22
2023-02-21T14:05:44.006Z,101563.72
2023-02-21T14:08:22.195Z,101565.53
2023-02-21T14:10:55.036Z,101562.00
2023-02-21T14:13:33.186Z,101561.19
2023-02-21T14:16:09.497Z,101569.50
2023-02-21T14:18:39.022Z,101568.66
2023-02-21T14:21:24.294Z,101578.97
2023-02-21T14:23:58.627Z,101568.75
2023-02-21T14:26:43.884Z,101564.53
2023-02-21T14:29:15.152Z,101565.25
2023-02-21T14:31:53.941Z,101561.03
2023-02-21T14:34:28.213Z,101560.00
2023-02-21T14:37:00.263Z,101558.44
2023-02-21T14:39:34.291Z,101554.28
2023-02-21T14:42:17.589Z,101560.44
2023-02-21T14:45:11.867Z,101565.88
2023-02-21T14:48:09.356Z,101560.03
2023-02-21T14:50:44.613Z,101548.69
2023-02-21T14:53:53.125Z,101563.25
2023-02-21T14:56:58.784Z,101562.31
2023-02-21T14:59:49.402Z,101562.53
2023-02-21T15:02:40.000Z,101559.25
2023-02-21T15:05:23.052Z,101564.22
2023-02-21T15:07:49.345Z,101562.75
2023-02-21T15:10:25.323Z,101557.28
2023-02-21T15:12:55.294Z,101564.78
2023-02-21T15:15:26.895Z,101568.94
2023-02-21T15:18:06.115Z,101561.13
2023-02-21T15:20:41.523Z,101562.91
2023-02-21T15:23:16.690Z,101573.50
2023-02-21T15:25:44.501Z,101563.13
2023-02-21T15:28:26.135Z,101567.47
2023-02-21T15:31:02.390Z,101567.38
2023-02-21T15:33:34.034Z,101570.63
2023-02-21T15:36:06.067Z,101568.88
2023-02-21T15:38:37.754Z,101573.00
2023-02-21T15:41:14.753Z,101570.34
2023-02-21T15:43:56.641Z,101579.66
2023-02-21T15:46:27.111Z,101577.94
2023-02-21T15:48:59.789Z,101579.66
2023-02-21T15:51:26.454Z,101585.56
2023-02-21T15:54:21.217Z,101577.75
2023-02-21T15:56:47.635Z,101579.41
2023-02-21T15:59:26.370Z,101579.41
2023-02-21T16:02:11.033Z,101582.13
2023-02-21T16:04:55.633Z,101582.81
2023-02-21T16:07:44.388Z,101583.72
2023-02-21T16:10:14.369Z,101579.31
2023-02-21T16:12:43.847Z,101577.19
2023-02-21T16:15:25.219Z,101580.34
2023-02-21T16:17:57.986Z,101579.66
2023-02-21T16:20:30.634Z,101578.84
2023-02-21T16:23:26.679Z,101576.88
2023-02-21T16:25:59.084Z,101581.19
2023-02-21T16:28:25.972Z,101578.63
2023-02-21T16:30:52.782Z,101584.69
2023-02-21T16:33:19.244Z,101591.31
2023-02-21T16:35:45.639Z,101585.94
2023-02-21T16:38:17.317Z,101589.16
2023-02-21T16:40:43.980Z,101593.31
2023-02-21T16:43:17.498Z,101594.00
2023-02-21T16:45:44.055Z,101596.38
2023-02-21T16:48:16.451Z,101599.94
2023-02-21T16:50:44.029Z,101599.25
2023-02-21T16:53:14.811Z,101599.94
2023-02-21T16:55:45.083Z,101599.81
2023-02-21T16:58:22.561Z,101606.81
2023-02-21T17:00:48.980Z,101604.16
2023-02-21T17:03:15.303Z,101608.50
2023-02-21T17:05:41.926Z,101610.25
2023-02-21T17:08:08.253Z,101609.19
2023-02-21T17:10:34.710Z,101611.66
2023-02-21T17:13:03.606Z,101609.81
2023-02-21T17:15:32.065Z,101610.00
2023-02-21T17:17:59.369Z,101616.13
2023-02-21T17:20:26.124Z,101611.66
2023-02-21T17:22:54.017Z,101617.66
2023-02-21T17:25:23.005Z,101618.41
2023-02-21T17:27:50.227Z,101627.22
2023-02-21T17:30:18.414Z,101616.91
2023-02-21T17:32:47.007Z,101620.38
2023-02-21T17:35:15.320Z,101624.72
2023-02-21T17:37:47.523Z,101630.78
2023-02-21T17:40:14.252Z,101628.28
2023-02-21T17:42:40.624Z,101636.00
2023-02-21T17:45:07.645Z,101635.94
2023-02-21T17:47:35.358Z,101640.97
2023-02-21T17:50:03.663Z,101641.72
2023-02-21T17:52:31.097Z,101638.88
2023-02-21T17:54:57.836Z,101638.06
2023-02-21T17:57:24.317Z,101642.28
2023-02-21T17:59:50.832Z,101644.09
2023-02-21T18:02:18.933Z,101647.88
2023-02-21T18:04:45.774Z,101648.88
2023-02-21T18:07:12.150Z,101650.78
2023-02-21T18:09:38.530Z,101647.50
2023-02-21T18:12:05.055Z,101653.34
2023-02-21T18:14:32.134Z,101657.44
2023-02-21T18:16:58.580Z,101651.50
2023-02-21T18:19:25.405Z,101649.97
2023-02-21T18:21:52.039Z,101656.72
2023-02-21T18:24:19.193Z,101666.16
2023-02-21T18:26:46.436Z,101660.94
2023-02-21T18:29:12.934Z,101651.44
2023-02-21T18:31:39.515Z,101654.88
2023-02-21T18:34:07.569Z,101653.09
2023-02-21T18:36:35.421Z,101654.75
2023-02-21T18:39:01.986Z,101656.22
2023-02-21T18:41:28.363Z,101652.00
2023-02-21T18:43:54.737Z,101660.56
2023-02-21T18:46:21.936Z,101654.69
2023-02-21T18:48:50.256Z,101655.72
2023-02-21T18:51:19.889Z,101657.69
2023-02-21T18:53:48.381Z,101648.13
2023-02-21T18:56:19.233Z,101650.53
2023-02-21T18:58:46.874Z,101654.75
2023-02-21T19:01:15.948Z,101652.16
2023-02-21T19:03:42.674Z,101648.75
2023-02-21T19:06:12.875Z,101653.91
2023-02-21T19:08:39.530Z,101652.00
2023-02-21T19:11:05.914Z,101652.72
2023-02-21T19:13:32.289Z,101653.03
2023-02-21T19:16:00.391Z,101651.50
2023-02-21T19:18:28.177Z,101655.78
2023-02-21T19:20:54.742Z,101653.28
2023-02-21T19:23:21.105Z,101663.59
2023-02-21T19:25:47.447Z,101653.97
2023-02-21T19:28:13.862Z,101658.94
2023-02-21T19:30:40.243Z,101657.94
2023-02-21T19:33:09.361Z,101658.00
2023-02-21T19:35:36.143Z,101665.09
2023-02-21T19:38:07.511Z,101664.44
2023-02-21T19:40:35.205Z,101662.59
2023-02-21T19:43:02.680Z,101668.59
2023-02-21T19:45:30.528Z,101665.84
2023-02-21T19:47:57.048Z,101662.47
2023-02-21T19:50:23.460Z,101666.47
2023-02-21T19:52:56.153Z,101677.75
2023-02-21T19:55:23.301Z,101675.53
2023-02-21T19:57:49.717Z,101674.13
2023-02-21T20:00:16.446Z,101667.44
2023-02-21T20:02:44.521Z,101675.16
2023-02-21T20:05:13.891Z,101681.00
2023-02-21T20:07:41.332Z,101676.34
2023-02-21T20:10:09.446Z,101672.00
2023-02-21T20:12:35.955Z,101671.81
2023-02-21T20:15:02.849Z,101683.94
2023-02-21T20:17:31.531Z,101682.66
2023-02-21T20:19:57.869Z,101682.84
2023-02-21T20:22:25.538Z,101680.84
2023-02-21T20:24:51.917Z,101682.78
2023-02-21T20:27:18.342Z,101680.34
2023-02-21T20:29:46.560Z,101677.75
2023-02-21T20:32:15.641Z,101689.81
2023-02-21T20:34:42.049Z,101679.59
2023-02-21T20:37:11.093Z,101681.03
2023-02-21T20:39:37.799Z,101685.28
2023-02-21T20:42:06.977Z,101686.13
2023-02-21T20:44:35.825Z,101679.28
2023-02-21T20:47:03.979Z,101682.91
2023-02-21T20:49:31.028Z,101683.13
2023-02-21T20:51:58.321Z,101682.22
2023-02-21T20:54:24.971Z,101683.88
2023-02-21T20:56:57.102Z,101684.69
2023-02-21T20:59:29.376Z,101675.66
2023-02-21T21:01:57.935Z,101674.69
2023-02-21T21:04:32.556Z,101675.53
2023-02-21T21:07:08.771Z,101678.16
2023-02-21T21:09:37.297Z,101688.47
2023-02-21T21:12:07.251Z,101688.72
2023-02-21T21:14:37.826Z,101683.63
2023-02-21T21:17:04.498Z,101681.31
2023-02-21T21:19:33.938Z,101690.06
2023-02-21T21:22:06.024Z,101685.97
2023-02-21T21:24:33.045Z,101679.16
2023-02-21T21:27:06.333Z,101682.69
2023-02-21T21:29:36.321Z,101687.91
2023-02-21T21:32:05.316Z,101683.56
2023-02-21T21:34:33.078Z,101679.16
2023-02-21T21:37:01.870Z,101682.63
2023-02-21T21:39:28.361Z,101679.03
2023-02-21T21:41:58.670Z,101683.81
2023-02-21T21:44:26.662Z,101681.13
2023-02-21T21:46:54.162Z,101686.28
2023-02-21T21:49:23.118Z,101687.84
2023-02-21T21:51:50.017Z,101684.94
2023-02-21T21:54:20.662Z,101684.94
2023-02-21T21:56:48.575Z,101684.19
2023-02-21T21:59:20.288Z,101674.75
2023-02-21T22:01:47.475Z,101676.41
2023-02-21T22:04:14.485Z,101679.53
2023-02-21T22:06:41.823Z,101673.38
2023-02-21T22:09:09.430Z,101676.03
2023-02-21T22:11:36.505Z,101677.56
2023-02-21T22:14:03.373Z,101671.69
2023-02-21T22:16:37.660Z,101676.16
2023-02-21T22:19:04.176Z,101667.69
2023-02-21T22:21:31.717Z,101671.88
2023-02-21T22:23:58.660Z,101669.22
2023-02-21T22:26:26.512Z,101668.09
2023-02-21T22:28:53.417Z,101663.03
2023-02-21T22:31:20.709Z,101664.00
2023-02-21T22:33:47.111Z,101662.41
2023-02-21T22:36:14.828Z,101658.94
2023-02-21T22:38:43.841Z,101654.69
2023-02-21T22:41:23.566Z,101651.25
2023-02-21T22:43:51.479Z,101651.19
2023-02-21T22:46:18.962Z,101656.91
2023-02-21T22:48:45.599Z,101651.50
2023-02-21T22:51:14.593Z,101647.63
2023-02-21T22:53:41.502Z,101659.81
2023-02-21T22:56:11.911Z,101653.59
2023-02-21T22:58:38.513Z,101647.69
2023-02-21T23:01:08.165Z,101640.78
2023-02-21T23:03:35.206Z,101643.53
2023-02-21T23:06:02.195Z,101646.06
2023-02-21T23:08:29.511Z,101642.47
2023-02-21T23:10:55.846Z,101644.88
2023-02-21T23:13:24.837Z,101639.44
2023-02-21T23:15:55.620Z,101644.88
2023-02-21T23:18:23.091Z,101638.13
2023-02-21T23:20:52.968Z,101635.56
2023-02-21T23:23:22.040Z,101639.72
2023-02-21T23:25:48.434Z,101636.78
2023-02-21T23:28:16.375Z,101634.16
2023-02-21T23:30:43.097Z,101630.03
2023-02-21T23:33:30.120Z,101631.16
2023-02-21T23:35:57.211Z,101627.91
2023-02-21T23:38:27.821Z,101624.53
2023-02-21T23:40:56.454Z,101625.38
2023-02-21T23:43:25.253Z,101624.47
2023-02-21T23:45:52.935Z,101626.84
2023-02-21T23:48:19.447Z,101629.28
2023-02-21T23:50:47.013Z,101632.69
2023-02-21T23:53:19.940Z,101624.16
2023-02-21T23:55:47.495Z,101625.00
2023-02-21T23:58:16.704Z,101624.22
